Time;durP1;ratioP1;P1;durP2;ratioP2;P2;SDS_P1;SDS_P2;PMS_P1;PMS_P2;Temp;Humidity;BMP_temperature;BMP_pressure;BME280_temperature;BME280_humidity;BME280_pressure;Samples;Min_cycle;Max_cycle;Signal;HPM_P1;HPM_P2
2023/11/23 00:01:16;;;;;;;32.63;15.77;;;;;;;;;;6247002;23;20035;-93
2023/11/23 00:03:45;;;;;;;28.50;14.35;;;;;;;;;;6247266;23;20050;-90
2023/11/23 00:06:11;;;;;;;28.08;14.05;;;;;;;;;;6246652;23;20008;-91
2023/11/23 00:08:40;;;;;;;31.90;14.85;;;;;;;;;;6246286;23;20050;-92
2023/11/23 00:11:07;;;;;;;29.77;14.13;;;;;;;;;;6246068;23;20015;-91
2023/11/23 00:13:33;;;;;;;30.65;15.30;;;;;;;;;;6246474;23;20020;-94
2023/11/23 00:16:00;;;;;;;29.40;14.90;;;;;;;;;;6246105;23;19997;-91
2023/11/23 00:18:26;;;;;;;27.63;13.88;;;;;;;;;;6245842;23;20307;-92
2023/11/23 00:20:55;;;;;;;28.80;14.98;;;;;;;;;;6245782;23;20418;-92
2023/11/23 00:23:21;;;;;;;34.08;13.63;;;;;;;;;;6245995;23;20047;-91
2023/11/23 00:25:48;;;;;;;27.58;14.13;;;;;;;;;;6246014;23;20035;-93
2023/11/23 00:28:14;;;;;;;27.15;13.93;;;;;;;;;;6220471;23;20004;-93
2023/11/23 00:30:40;;;;;;;26.58;13.43;;;;;;;;;;6246496;23;20008;-93
2023/11/23 00:33:06;;;;;;;25.33;12.93;;;;;;;;;;6245904;23;20012;-93
2023/11/23 00:35:32;;;;;;;27.75;13.40;;;;;;;;;;6246081;23;20381;-95
2023/11/23 00:37:58;;;;;;;26.85;13.45;;;;;;;;;;6246024;23;20091;-92
2023/11/23 00:40:24;;;;;;;27.17;13.68;;;;;;;;;;6220927;23;20008;-94
2023/11/23 00:42:53;;;;;;;22.90;13.02;;;;;;;;;;6219209;23;20024;-93
2023/11/23 00:45:19;;;;;;;28.02;13.43;;;;;;;;;;6244971;23;20004;-93
2023/11/23 00:47:48;;;;;;;27.85;13.45;;;;;;;;;;6247536;23;20008;-93
2023/11/23 00:50:14;;;;;;;28.40;13.02;;;;;;;;;;6245760;23;20011;-93
2023/11/23 00:52:40;;;;;;;29.25;13.93;;;;;;;;;;6244702;23;20109;-93
2023/11/23 00:55:06;;;;;;;30.35;13.68;;;;;;;;;;6244556;23;20000;-92
2023/11/23 00:57:35;;;;;;;30.80;14.10;;;;;;;;;;6244811;23;20008;-93
2023/11/23 01:00:05;;;;;;;29.65;14.75;;;;;;;;;;6246462;22;20075;-91
2023/11/23 01:02:31;;;;;;;26.67;13.57;;;;;;;;;;6245396;23;20000;-91
2023/11/23 01:05:00;;;;;;;26.85;13.18;;;;;;;;;;6244369;23;20024;-91
2023/11/23 01:07:30;;;;;;;32.35;15.65;;;;;;;;;;6245117;23;20007;-92
2023/11/23 01:09:59;;;;;;;29.83;14.80;;;;;;;;;;6244642;23;20448;-92
2023/11/23 01:12:25;;;;;;;30.08;14.88;;;;;;;;;;6244551;23;20070;-91
2023/11/23 01:14:51;;;;;;;32.60;15.35;;;;;;;;;;6244539;23;20001;-91
2023/11/23 01:17:20;;;;;;;31.10;15.73;;;;;;;;;;6244121;23;20004;-90
2023/11/23 01:19:46;;;;;;;32.38;15.38;;;;;;;;;;6243976;23;20011;-91
2023/11/23 01:22:12;;;;;;;32.75;15.82;;;;;;;;;;6245458;23;20007;-94
2023/11/23 01:24:38;;;;;;;33.92;16.10;;;;;;;;;;6243949;23;20338;-91
2023/11/23 01:27:05;;;;;;;35.15;16.60;;;;;;;;;;6243968;23;20093;-93
2023/11/23 01:29:31;;;;;;;31.15;15.35;;;;;;;;;;6219199;23;20035;-93
2023/11/23 01:31:57;;;;;;;30.92;15.48;;;;;;;;;;6244175;23;20012;-91
2023/11/23 01:34:24;;;;;;;30.75;14.95;;;;;;;;;;6244218;23;20013;-93
2023/11/23 01:36:50;;;;;;;32.72;15.38;;;;;;;;;;6244000;23;20004;-91
2023/11/23 01:39:17;;;;;;;33.08;16.15;;;;;;;;;;6244202;23;20008;-94
2023/11/23 01:41:43;;;;;;;35.15;16.48;;;;;;;;;;6058767;22;4418482;-92
2023/11/23 01:44:33;;;;;;;34.97;17.30;;;;;;;;;;6245383;23;20083;-90
2023/11/23 01:46:59;;;;;;;31.98;16.63;;;;;;;;;;6246832;22;20004;-91
2023/11/23 01:49:25;;;;;;;35.03;17.45;;;;;;;;;;6245515;23;20004;-91
2023/11/23 01:51:51;;;;;;;40.72;19.38;;;;;;;;;;6245163;23;20004;-91
2023/11/23 01:54:18;;;;;;;38.30;17.88;;;;;;;;;;6245470;23;20016;-90
2023/11/23 01:56:51;;;;;;;36.03;17.25;;;;;;;;;;6245048;23;20008;-91
2023/11/23 01:59:17;;;;;;;39.05;18.17;;;;;;;;;;6245094;23;20004;-92
2023/11/23 02:01:44;;;;;;;35.22;17.00;;;;;;;;;;6245372;23;20036;-91
2023/11/23 02:04:11;;;;;;;35.72;16.73;;;;;;;;;;6245627;23;20011;-91
2023/11/23 02:06:37;;;;;;;35.42;17.27;;;;;;;;;;6245182;23;20000;-91
2023/11/23 02:09:05;;;;;;;33.55;16.85;;;;;;;;;;6249599;23;20040;-91
2023/11/23 02:11:32;;;;;;;35.53;16.38;;;;;;;;;;6246141;23;20055;-91
2023/11/23 02:13:59;;;;;;;40.20;18.13;;;;;;;;;;6245391;23;20016;-91
2023/11/23 02:16:25;;;;;;;38.72;16.60;;;;;;;;;;6245361;23;20001;-90
2023/11/23 02:18:52;;;;;;;35.50;16.60;;;;;;;;;;6246198;23;20110;-91
2023/11/23 02:21:18;;;;;;;39.15;17.95;;;;;;;;;;6247114;23;20418;-94
2023/11/23 02:23:47;;;;;;;37.67;17.75;;;;;;;;;;6247309;23;20433;-90
2023/11/23 02:26:13;;;;;;;35.75;17.13;;;;;;;;;;6247309;23;20016;-94
2023/11/23 02:28:39;;;;;;;34.78;16.63;;;;;;;;;;6247304;23;20004;-93
2023/11/23 02:31:05;;;;;;;34.10;16.33;;;;;;;;;;6247052;23;20090;-91
2023/11/23 02:33:36;;;;;;;34.95;16.23;;;;;;;;;;6246917;23;20445;-91
2023/11/23 02:36:05;;;;;;;38.38;17.77;;;;;;;;;;6246796;23;20087;-91
2023/11/23 02:38:32;;;;;;;35.78;15.95;;;;;;;;;;6246577;23;20031;-91
2023/11/23 02:40:58;;;;;;;37.60;17.63;;;;;;;;;;6246699;23;20000;-90
2023/11/23 02:43:25;;;;;;;43.33;19.63;;;;;;;;;;6216865;23;20029;-90
2023/11/23 02:45:54;;;;;;;44.20;18.85;;;;;;;;;;6216583;23;20012;-91
2023/11/23 02:48:33;;;;;;;;;;;;;;;;;;;;;
2023/11/23 02:51:00;;;;;;;39.65;18.38;;;;;;;;;;6248720;23;20087;-92
2023/11/23 02:53:42;;;;;;;37.33;18.08;;;;;;;;;;6221595;23;20468;-92
2023/11/23 02:56:09;;;;;;;38.28;18.17;;;;;;;;;;6221890;23;20004;-92
2023/11/23 02:58:35;;;;;;;49.45;21.02;;;;;;;;;;6221723;23;20463;-91
2023/11/23 03:01:01;;;;;;;47.08;20.80;;;;;;;;;;6221657;23;20011;-91
2023/11/23 03:03:27;;;;;;;45.90;18.35;;;;;;;;;;6221172;23;20008;-90
2023/11/23 03:05:56;;;;;;;35.55;17.77;;;;;;;;;;6222113;23;20083;-91
2023/11/23 03:08:25;;;;;;;34.22;16.08;;;;;;;;;;6222000;23;20004;-90
2023/11/23 03:10:53;;;;;;;37.10;18.10;;;;;;;;;;6220868;23;20012;-93
2023/11/23 03:13:20;;;;;;;36.08;17.05;;;;;;;;;;6221025;23;20442;-90
2023/11/23 03:15:46;;;;;;;37.30;17.13;;;;;;;;;;6220533;23;20004;-91
2023/11/23 03:18:12;;;;;;;40.22;18.08;;;;;;;;;;6220802;23;20036;-94
2023/11/23 03:20:38;;;;;;;36.60;17.17;;;;;;;;;;6221160;23;20004;-93
2023/11/23 03:23:04;;;;;;;39.40;17.40;;;;;;;;;;6221276;23;20012;-92
2023/11/23 03:25:31;;;;;;;39.15;17.23;;;;;;;;;;6222033;23;20031;-91
2023/11/23 03:27:57;;;;;;;37.80;17.20;;;;;;;;;;6226302;23;20027;-91
2023/11/23 03:30:23;;;;;;;37.33;18.15;;;;;;;;;;6221604;23;20011;-92
2023/11/23 03:32:50;;;;;;;40.05;17.83;;;;;;;;;;6220902;23;20023;-93
2023/11/23 03:35:16;;;;;;;41.42;17.77;;;;;;;;;;6220996;23;20011;-92
2023/11/23 03:37:43;;;;;;;43.50;19.15;;;;;;;;;;6221045;23;20008;-91
2023/11/23 03:40:10;;;;;;;42.55;18.52;;;;;;;;;;6221405;23;20011;-93
2023/11/23 03:42:36;;;;;;;39.08;17.83;;;;;;;;;;6236179;23;20070;-92
2023/11/23 03:45:05;;;;;;;43.33;18.80;;;;;;;;;;6247372;23;20028;-92
2023/11/23 03:47:32;;;;;;;42.38;18.30;;;;;;;;;;6246177;23;20012;-91
2023/11/23 03:49:59;;;;;;;42.53;19.25;;;;;;;;;;6246307;23;20430;-93
2023/11/23 03:52:25;;;;;;;40.55;18.60;;;;;;;;;;6244755;23;20062;-91
2023/11/23 03:54:51;;;;;;;43.95;19.40;;;;;;;;;;6246497;23;20035;-92
2023/11/23 03:57:17;;;;;;;43.45;19.50;;;;;;;;;;6246486;23;20004;-93
2023/11/23 03:59:43;;;;;;;45.72;20.10;;;;;;;;;;6246323;23;20026;-93
2023/11/23 04:02:10;;;;;;;43.05;19.83;;;;;;;;;;6246090;23;20441;-93
2023/11/23 04:04:36;;;;;;;46.42;19.40;;;;;;;;;;6246320;23;20005;-92
2023/11/23 04:07:02;;;;;;;45.47;19.27;;;;;;;;;;6246246;23;20008;-92
2023/11/23 04:09:28;;;;;;;46.53;19.30;;;;;;;;;;6245975;23;20008;-92
2023/11/23 04:11:55;;;;;;;39.83;17.08;;;;;;;;;;6245789;23;20008;-92
2023/11/23 04:14:21;;;;;;;45.65;19.55;;;;;;;;;;6245772;23;20015;-93
2023/11/23 04:16:47;;;;;;;44.10;19.63;;;;;;;;;;6246320;23;20000;-93
2023/11/23 04:19:14;;;;;;;44.42;19.23;;;;;;;;;;6246149;23;20054;-91
2023/11/23 04:21:41;;;;;;;49.45;20.75;;;;;;;;;;6245788;23;20088;-93
2023/11/23 04:24:07;;;;;;;47.70;19.35;;;;;;;;;;6246551;23;20459;-91
2023/11/23 04:26:33;;;;;;;51.58;20.52;;;;;;;;;;6246133;23;20004;-92
2023/11/23 04:28:59;;;;;;;49.08;19.85;;;;;;;;;;6245974;23;20158;-90
2023/11/23 04:31:29;;;;;;;48.83;21.20;;;;;;;;;;6246091;23;20015;-93
2023/11/23 04:33:55;;;;;;;45.58;19.00;;;;;;;;;;6246049;23;20024;-95
2023/11/23 04:36:22;;;;;;;41.85;18.63;;;;;;;;;;6246358;23;20457;-94
2023/11/23 04:38:49;;;;;;;48.95;20.48;;;;;;;;;;6246419;23;20085;-92
2023/11/23 04:41:15;;;;;;;49.42;20.58;;;;;;;;;;6250961;22;20561;-94
2023/11/23 04:43:41;;;;;;;40.17;19.27;;;;;;;;;;6251890;22;20023;-94
2023/11/23 04:46:07;;;;;;;46.35;21.15;;;;;;;;;;6251787;22;20030;-94
2023/11/23 04:48:33;;;;;;;49.75;20.10;;;;;;;;;;6252038;22;19999;-94
2023/11/23 04:51:01;;;;;;;45.45;20.00;;;;;;;;;;6251271;22;20066;-92
2023/11/23 04:53:27;;;;;;;48.72;21.42;;;;;;;;;;6250886;22;20022;-92
2023/11/23 04:55:53;;;;;;;50.35;21.58;;;;;;;;;;6250861;22;20010;-90
2023/11/23 04:58:19;;;;;;;53.10;21.30;;;;;;;;;;6250819;22;20012;-95
2023/11/23 05:00:46;;;;;;;48.58;22.35;;;;;;;;;;6226002;22;20091;-90
2023/11/23 05:03:14;;;;;;;42.15;18.85;;;;;;;;;;6250974;22;20004;-94
2023/11/23 05:05:40;;;;;;;44.47;20.13;;;;;;;;;;6250565;22;20008;-91
2023/11/23 05:08:06;;;;;;;52.90;22.67;;;;;;;;;;6251011;22;20004;-93
2023/11/23 05:10:37;;;;;;;49.38;20.27;;;;;;;;;;6250858;22;20031;-93
2023/11/23 05:13:03;;;;;;;49.42;21.17;;;;;;;;;;6250989;22;20087;-95
2023/11/23 05:15:30;;;;;;;43.95;19.58;;;;;;;;;;6250865;22;20015;-94
2023/11/23 05:17:56;;;;;;;54.50;21.63;;;;;;;;;;6250826;22;20015;-94
2023/11/23 05:20:24;;;;;;;48.40;19.80;;;;;;;;;;6251625;22;20075;-94
2023/11/23 05:23:12;;;;;;;55.38;22.15;;;;;;;;;;6251360;22;20433;-94
2023/11/23 05:25:39;;;;;;;58.30;21.50;;;;;;;;;;6250765;22;20053;-91
2023/11/23 05:28:06;;;;;;;52.90;20.98;;;;;;;;;;6251060;22;20008;-92
2023/11/23 05:30:32;;;;;;;57.60;21.95;;;;;;;;;;6250613;22;20011;-94
2023/11/23 05:33:00;;;;;;;59.72;21.95;;;;;;;;;;6251033;22;20015;-94
2023/11/23 05:35:30;;;;;;;57.80;22.80;;;;;;;;;;6250705;22;20004;-91
2023/11/23 05:37:57;;;;;;;52.80;21.52;;;;;;;;;;6250667;22;20027;-93
2023/11/23 05:40:23;;;;;;;49.00;20.75;;;;;;;;;;6250894;22;20004;-93
2023/11/23 05:42:49;;;;;;;40.92;19.25;;;;;;;;;;6245514;23;20085;-95
2023/11/23 05:45:16;;;;;;;53.72;22.65;;;;;;;;;;6245351;23;20042;-92
2023/11/23 05:47:42;;;;;;;47.58;20.60;;;;;;;;;;6245567;23;20008;-95
2023/11/23 05:50:09;;;;;;;50.08;21.23;;;;;;;;;;6245181;23;20001;-92
2023/11/23 05:52:58;;;;;;;50.20;21.98;;;;;;;;;;6245201;23;20020;-91
2023/11/23 05:55:24;;;;;;;50.05;22.33;;;;;;;;;;6247794;23;20015;-93
2023/11/23 05:57:50;;;;;;;45.13;20.17;;;;;;;;;;6247852;23;20023;-94
2023/11/23 06:00:17;;;;;;;44.55;19.52;;;;;;;;;;6247129;23;20001;-91
2023/11/23 06:02:43;;;;;;;45.45;20.75;;;;;;;;;;6247410;23;20015;-90
2023/11/23 06:05:09;;;;;;;49.42;20.98;;;;;;;;;;6247419;23;20007;-92
2023/11/23 06:07:35;;;;;;;49.83;22.75;;;;;;;;;;6249275;23;20008;-90
2023/11/23 06:10:04;;;;;;;50.33;22.55;;;;;;;;;;6251999;23;20370;-93
2023/11/23 06:13:03;;;;;;;52.20;21.83;;;;;;;;;;6247400;23;20016;-90
2023/11/23 06:15:32;;;;;;;44.95;20.05;;;;;;;;;;6248317;23;20004;-91
2023/11/23 06:18:24;;;;;;;;;;;;;;;;;;;;;
2023/11/23 06:20:54;;;;;;;41.63;19.02;;;;;;;;;;6248694;22;20024;-95
2023/11/23 06:23:33;;;;;;;;;;;;;;;;;;;;;
2023/11/23 06:26:03;;;;;;;39.35;18.67;;;;;;;;;;6251870;23;20456;-92
2023/11/23 06:28:33;;;;;;;44.83;20.90;;;;;;;;;;6245758;23;20004;-91
2023/11/23 06:30:59;;;;;;;51.92;22.17;;;;;;;;;;6247879;23;20059;-89
2023/11/23 06:33:27;;;;;;;53.67;21.15;;;;;;;;;;6221626;23;20077;-89
2023/11/23 06:36:19;;;;;;;44.15;21.15;;;;;;;;;;6248289;23;20480;-90
2023/11/23 06:42:06;;;;;;;47.90;22.00;;;;;;;;;;6223086;22;20094;-91
2023/11/23 06:44:59;;;;;;;42.97;19.67;;;;;;;;;;6246314;23;20012;-94
2023/11/23 06:47:25;;;;;;;53.90;22.73;;;;;;;;;;6249101;23;20047;-87
2023/11/23 17:18:10;;;;;;;13.90;7.72;;;;;;;;;;6264972;22;20385;-76
2023/11/23 17:26:32;;;;;;;19.45;10.30;;;;;;;;;;6216183;22;20030;-94
2023/11/23 17:34:19;;;;;;;13.63;7.28;;;;;;;;;;6270261;22;20007;-95
2023/11/23 17:37:09;;;;;;;10.23;6.20;;;;;;;;;;6228187;23;19997;-94
2023/11/23 17:42:13;;;;;;;10.05;5.43;;;;;;;;;;6279202;22;20010;-95
2023/11/23 17:50:43;;;;;;;8.60;5.30;;;;;;;;;;6203729;22;20304;-95
2023/11/23 18:18:31;;;;;;;10.98;5.90;;;;;;;;;;6230031;22;20052;-96
2023/11/23 18:20:57;;;;;;;15.93;7.47;;;;;;;;;;6221107;23;20070;-93
2023/11/23 18:23:27;;;;;;;14.63;7.90;;;;;;;;;;6222194;23;20011;-92
2023/11/23 18:31:28;;;;;;;10.40;6.35;;;;;;;;;;6206527;23;20061;-95
2023/11/23 18:42:13;;;;;;;9.48;5.72;;;;;;;;;;6281776;22;20449;-95
2023/11/23 18:47:38;;;;;;;11.15;6.50;;;;;;;;;;6260203;22;20275;-93
2023/11/23 18:52:59;;;;;;;10.65;5.72;;;;;;;;;;6192486;23;20331;-94
2023/11/23 18:55:29;;;;;;;10.35;5.95;;;;;;;;;;6245105;22;20012;-96
2023/11/23 18:58:01;;;;;;;11.48;6.53;;;;;;;;;;6242980;22;20064;-94
2023/11/23 19:00:34;;;;;;;12.45;6.72;;;;;;;;;;6195061;23;20005;-94
2023/11/23 19:03:01;;;;;;;11.02;6.70;;;;;;;;;;6199395;23;20004;-96
2023/11/23 19:05:35;;;;;;;9.90;6.40;;;;;;;;;;6226239;23;19997;-93
2023/11/23 19:08:08;;;;;;;10.40;6.28;;;;;;;;;;6205319;23;20031;-95
2023/11/23 19:11:14;;;;;;;;;;;;;;;;;;;;;
2023/11/23 19:17:04;;;;;;;11.95;5.75;;;;;;;;;;6136080;23;20041;-96
2023/11/23 19:19:34;;;;;;;9.88;5.68;;;;;;;;;;6135132;23;20004;-96
2023/11/23 19:22:26;;;;;;;8.27;5.47;;;;;;;;;;6229359;23;20004;-96
2023/11/23 19:31:45;;;;;;;;;;;;;;;;;;;;;
2023/11/23 19:34:22;;;;;;;9.85;5.47;;;;;;;;;;6280479;22;20091;-95
2023/11/23 19:37:07;;;;;;;8.10;5.07;;;;;;;;;;6252737;22;20018;-92
2023/11/23 19:56:24;;;;;;;9.02;5.43;;;;;;;;;;6278452;22;20077;-92
2023/11/23 20:02:09;;;;;;;8.90;5.15;;;;;;;;;;6280335;22;20018;-94
2023/11/23 20:07:17;;;;;;;8.50;5.20;;;;;;;;;;6258656;22;20453;-95
2023/11/23 20:12:19;;;;;;;9.68;5.28;;;;;;;;;;6263814;22;20019;-93
2023/11/23 20:26:42;;;;;;;6.55;4.05;;;;;;;;;;6291547;22;20284;-93
2023/11/23 20:36:16;;;;;;;7.93;4.47;;;;;;;;;;6131063;23;20419;-93
2023/11/23 20:48:11;;;;;;;7.75;4.13;;;;;;;;;;6083825;23;20010;-94
2023/11/23 21:17:34;;;;;;;5.22;3.28;;;;;;;;;;6192403;23;20009;-96
2023/11/23 21:20:18;;;;;;;6.22;3.83;;;;;;;;;;6157248;23;20013;-96
2023/11/23 21:23:27;;;;;;;6.85;3.60;;;;;;;;;;6176086;23;20028;-96
2023/11/23 21:25:53;;;;;;;6.85;3.55;;;;;;;;;;6055467;23;20030;-96
2023/11/23 21:28:32;;;;;;;7.05;3.80;;;;;;;;;;6053913;23;20081;-95
2023/11/23 21:31:08;;;;;;;5.50;3.35;;;;;;;;;;6057382;23;20358;-95
2023/11/23 21:34:01;;;;;;;7.93;3.65;;;;;;;;;;6053103;23;20019;-95
2023/11/23 21:36:45;;;;;;;5.55;3.17;;;;;;;;;;6071985;23;20007;-95
2023/11/23 21:42:06;;;;;;;5.68;3.53;;;;;;;;;;6084552;23;20026;-94
2023/11/23 21:44:36;;;;;;;5.88;3.45;;;;;;;;;;6057866;23;20011;-95
2023/11/23 21:49:48;;;;;;;7.10;3.17;;;;;;;;;;6256282;22;20016;-93
2023/11/23 21:52:23;;;;;;;5.13;3.08;;;;;;;;;;6241883;23;20015;-94
2023/11/23 21:54:54;;;;;;;7.40;3.65;;;;;;;;;;6279395;22;20008;-95
2023/11/23 21:57:20;;;;;;;6.40;3.25;;;;;;;;;;6287609;22;20468;-96
2023/11/23 21:59:54;;;;;;;6.18;3.58;;;;;;;;;;6244666;23;20004;-95
2023/11/23 22:02:23;;;;;;;6.65;4.15;;;;;;;;;;6256514;23;20023;-94
2023/11/23 22:04:52;;;;;;;7.38;3.30;;;;;;;;;;6233238;23;20070;-94
2023/11/23 22:07:21;;;;;;;7.13;3.83;;;;;;;;;;6228573;23;20004;-96
2023/11/23 22:12:52;;;;;;;8.18;4.40;;;;;;;;;;6226943;23;20031;-94
2023/11/23 22:15:37;;;;;;;6.75;4.03;;;;;;;;;;6228288;23;20468;-95
2023/11/23 22:18:14;;;;;;;6.53;3.70;;;;;;;;;;6212301;23;20000;-96
2023/11/23 22:20:41;;;;;;;7.70;3.53;;;;;;;;;;6230957;23;20047;-96
2023/11/23 22:23:07;;;;;;;7.18;3.65;;;;;;;;;;6231576;23;20008;-94
2023/11/23 22:25:43;;;;;;;5.40;3.33;;;;;;;;;;6225833;23;20008;-95
2023/11/23 22:28:14;;;;;;;6.00;3.45;;;;;;;;;;6223167;23;20004;-95
2023/11/23 22:33:32;;;;;;;5.20;3.35;;;;;;;;;;6185955;23;20016;-95
2023/11/23 22:35:59;;;;;;;5.70;3.50;;;;;;;;;;6235633;23;20104;-95
2023/11/23 22:38:28;;;;;;;5.20;3.22;;;;;;;;;;6243273;22;19984;-93
2023/11/23 22:40:57;;;;;;;5.75;3.05;;;;;;;;;;6236182;23;20012;-94
2023/11/23 22:43:26;;;;;;;5.93;3.40;;;;;;;;;;6216466;23;20012;-94
2023/11/23 22:45:59;;;;;;;5.45;3.33;;;;;;;;;;6222150;23;20012;-94
2023/11/23 22:48:38;;;;;;;5.73;3.53;;;;;;;;;;6196800;23;20008;-94
2023/11/23 22:51:05;;;;;;;5.13;3.28;;;;;;;;;;6218185;23;20023;-93
2023/11/23 22:53:33;;;;;;;6.57;3.67;;;;;;;;;;6244047;23;20398;-93
2023/11/23 22:56:03;;;;;;;5.70;3.70;;;;;;;;;;6273526;22;20028;-95
2023/11/23 22:58:32;;;;;;;7.55;3.83;;;;;;;;;;6292421;22;20008;-95
2023/11/23 23:01:06;;;;;;;5.50;3.38;;;;;;;;;;6274698;22;20032;-93
2023/11/23 23:03:39;;;;;;;6.03;3.67;;;;;;;;;;6270843;22;20004;-94
2023/11/23 23:06:09;;;;;;;;;;;;;;;;;;6273550;22;20007;-95
2023/11/23 23:08:54;;;;;;;5.60;3.38;;;;;;;;;;6221703;23;20259;-94
2023/11/23 23:11:35;;;;;;;7.53;4.20;;;;;;;;;;6272828;22;20008;-95
2023/11/23 23:14:06;;;;;;;6.68;3.83;;;;;;;;;;6272829;22;20099;-93
2023/11/23 23:19:45;;;;;;;6.40;3.75;;;;;;;;;;6216857;23;20524;-94
2023/11/23 23:22:17;;;;;;;10.48;5.32;;;;;;;;;;6221502;23;20380;-94
2023/11/23 23:24:48;;;;;;;6.88;3.97;;;;;;;;;;6222107;23;20011;-95
2023/11/23 23:27:14;;;;;;;8.68;4.40;;;;;;;;;;6221959;23;20004;-95
2023/11/23 23:29:41;;;;;;;11.95;3.70;;;;;;;;;;6232984;23;20058;-90
2023/11/23 23:32:10;;;;;;;6.90;4.30;;;;;;;;;;6234261;23;20472;-95
2023/11/23 23:35:00;;;;;;;6.22;3.72;;;;;;;;;;6236214;23;20027;-92
2023/11/23 23:37:36;;;;;;;6.90;3.88;;;;;;;;;;6230843;23;20461;-94
2023/11/23 23:40:05;;;;;;;5.43;3.45;;;;;;;;;;6221384;23;20024;-96
2023/11/23 23:42:32;;;;;;;6.38;3.70;;;;;;;;;;6219334;23;20306;-93
2023/11/23 23:45:01;;;;;;;5.82;3.80;;;;;;;;;;6220767;23;20063;-94
2023/11/23 23:47:50;;;;;;;6.85;4.10;;;;;;;;;;6229871;23;20004;-94
2023/11/23 23:50:25;;;;;;;6.22;4.10;;;;;;;;;;6232980;23;20008;-94
2023/11/23 23:52:57;;;;;;;6.88;4.72;;;;;;;;;;6292881;22;20015;-93
2023/11/23 23:55:35;;;;;;;7.43;4.40;;;;;;;;;;6273521;22;20012;-93
2023/11/23 23:58:04;;;;;;;7.88;4.55;;;;;;;;;;6246711;23;20004;-92
